Time;durP1;ratioP1;P1;durP2;ratioP2;P2;SDS_P1;SDS_P2;PMS_P1;PMS_P2;Temp;Humidity;BMP_temperature;BMP_pressure;BME280_temperature;BME280_humidity;BME280_pressure;Samples;Min_cycle;Max_cycle;Signal;HPM_P1;HPM_P2
2022/09/06 00:02:32;;;;;;;2.78;2.20;;;;;;;24.33;45.35;101528.38;4925227;28;122558;-81
2022/09/06 00:04:59;;;;;;;3.15;1.90;;;;;;;24.31;45.41;101533.06;4940173;28;113962;-81
2022/09/06 00:07:26;;;;;;;3.03;1.98;;;;;;;24.27;45.41;101522.53;4949599;28;113221;-81
2022/09/06 00:09:53;;;;;;;2.75;2.00;;;;;;;24.27;45.44;101517.09;4925035;28;124107;-81
2022/09/06 00:12:20;;;;;;;2.90;2.20;;;;;;;24.26;45.29;101520.81;4925137;28;123275;-81
2022/09/06 00:14:48;;;;;;;2.85;2.28;;;;;;;24.21;45.44;101506.84;4948506;28;114268;-81
2022/09/06 00:17:15;;;;;;;2.60;2.00;;;;;;;24.17;45.52;101510.84;4949748;28;115104;-80
2022/09/06 00:19:42;;;;;;;3.05;1.63;;;;;;;24.11;45.43;101511.41;4952681;28;123997;-81
2022/09/06 00:22:10;;;;;;;3.38;2.00;;;;;;;24.07;45.76;101510.84;4941529;28;123234;-80
2022/09/06 00:24:37;;;;;;;3.28;2.00;;;;;;;24.03;45.98;101519.38;4950003;28;113879;-81
2022/09/06 00:27:06;;;;;;;2.97;1.88;;;;;;;24.01;45.96;101526.78;4948701;28;113887;-81
2022/09/06 00:29:34;;;;;;;3.05;2.40;;;;;;;24.02;45.94;101528.50;4958745;28;123596;-78
2022/09/06 00:32:01;;;;;;;3.70;2.20;;;;;;;24.00;46.25;101530.50;4946108;28;123989;-78
2022/09/06 00:34:28;;;;;;;2.90;2.05;;;;;;;23.98;45.93;101521.63;4957030;28;114255;-78
2022/09/06 00:36:55;;;;;;;3.33;2.00;;;;;;;23.99;46.08;101523.34;4927942;28;113209;-77
2022/09/06 00:39:22;;;;;;;3.50;2.10;;;;;;;23.98;46.11;101499.97;4958285;28;123220;-79
2022/09/06 00:41:50;;;;;;;2.20;1.90;;;;;;;23.96;46.19;101512.81;4961336;28;123857;-79
2022/09/06 00:44:17;;;;;;;2.70;1.88;;;;;;;23.97;46.32;101525.34;4946174;28;114241;-79
2022/09/06 00:46:46;;;;;;;2.42;1.90;;;;;;;23.98;46.63;101543.28;4947601;28;113993;-79
2022/09/06 00:49:24;;;;;;;2.90;2.20;;;;;;;23.99;46.58;101547.72;4940210;28;123813;-78
2022/09/06 00:52:00;;;;;;;3.70;2.05;;;;;;;24.00;46.69;101579.19;4940458;28;124530;-79
2022/09/06 00:54:28;;;;;;;2.50;1.80;;;;;;;24.02;46.54;101620.50;4943635;28;113089;-79
2022/09/06 00:56:57;;;;;;;4.20;2.05;;;;;;;24.00;46.88;101627.91;4947416;28;113580;-79
2022/09/06 00:59:25;;;;;;;4.13;2.70;;;;;;;23.95;47.16;101624.75;4946779;28;123812;-79
2022/09/06 01:10:14;;;;;;;4.72;3.17;;;;;;;23.64;47.73;101632.84;4944458;28;115303;-79
2022/09/06 01:13:19;;;;;;;8.35;3.30;;;;;;;23.62;48.20;101640.22;4940881;28;123937;-79
2022/09/06 01:32:41;;;;;;;5.13;3.20;;;;;;;23.26;49.21;101602.78;4944006;28;124807;-79
2022/09/06 01:35:36;;;;;;;9.48;3.70;;;;;;;23.24;49.09;101598.47;4945814;28;113581;-79
2022/09/06 01:38:04;;;;;;;4.90;3.47;;;;;;;23.23;49.41;101591.38;4941431;28;113490;-79
2022/09/06 01:40:35;;;;;;;4.38;3.97;;;;;;;23.23;49.91;101580.56;4946950;28;123539;-80
2022/09/06 01:43:04;;;;;;;4.45;3.97;;;;;;;23.21;50.30;101564.47;4950596;28;122716;-79
2022/09/06 01:46:06;;;;;;;5.72;3.85;;;;;;;23.17;50.09;101554.06;4942210;28;113510;-79
2022/09/06 01:49:30;;;;;;;6.68;4.10;;;;;;;23.11;50.22;101550.91;4942380;28;113773;-79
2022/09/06 01:52:06;;;;;;;4.78;3.60;;;;;;;23.02;50.34;101554.38;4910557;28;123545;-79
2022/09/06 01:54:54;;;;;;;6.05;4.05;;;;;;;22.97;50.79;101548.53;4893275;28;123221;-80
2022/09/06 01:57:45;;;;;;;5.70;4.20;;;;;;;22.93;51.24;101523.59;4926080;28;114460;-78
2022/09/06 02:00:15;;;;;;;5.20;4.40;;;;;;;22.82;51.96;101520.97;4954741;28;112584;-79
2022/09/06 02:02:51;;;;;;;5.60;4.13;;;;;;;22.70;52.18;101513.97;4947296;28;123002;-80
2022/09/06 02:05:35;;;;;;;5.78;4.57;;;;;;;22.64;52.51;101509.94;4940532;28;123344;-79
2022/09/06 02:08:33;;;;;;;8.40;5.10;;;;;;;22.63;52.45;101492.00;4940019;28;115023;-79
2022/09/06 02:11:02;;;;;;;7.90;4.60;;;;;;;22.59;52.65;101479.75;4939496;28;114222;-80
2022/09/06 02:13:34;;;;;;;7.90;4.90;;;;;;;22.52;53.21;101465.06;4939316;28;122968;-79
2022/09/06 02:24:30;;;;;;;7.55;4.75;;;;;;;22.20;52.89;101409.28;4947730;28;114733;-79
2022/09/06 02:26:57;;;;;;;6.22;4.65;;;;;;;22.18;53.17;101395.06;4949202;28;123913;-79
2022/09/06 02:29:24;;;;;;;5.88;4.68;;;;;;;22.16;53.25;101383.53;4933207;28;124067;-78
2022/09/06 02:32:03;;;;;;;8.32;5.15;;;;;;;22.13;53.48;101362.22;4948963;28;114934;-79
2022/09/06 02:34:30;;;;;;;5.38;4.55;;;;;;;22.09;53.40;101344.59;4949709;28;114323;-79
2022/09/06 02:36:59;;;;;;;6.93;5.03;;;;;;;22.07;53.95;101343.88;4946118;28;123542;-79
2022/09/06 02:39:26;;;;;;;6.28;4.55;;;;;;;22.03;53.78;101358.59;4931855;28;124118;-79
2022/09/06 02:41:53;;;;;;;5.75;4.53;;;;;;;22.03;53.96;101372.09;4945560;28;114145;-79
2022/09/06 02:44:21;;;;;;;7.70;5.10;;;;;;;22.05;54.14;101383.63;4945151;28;113719;-79
2022/09/06 02:46:48;;;;;;;6.97;5.18;;;;;;;22.10;54.14;101384.09;4950012;28;122489;-79
2022/09/06 02:49:17;;;;;;;6.82;5.15;;;;;;;22.14;54.05;101377.44;4965129;28;124254;-80
2022/09/06 02:51:44;;;;;;;7.53;5.55;;;;;;;22.16;53.84;101375.47;4954432;28;111946;-80
2022/09/06 02:54:12;;;;;;;7.65;5.20;;;;;;;22.17;53.80;101377.19;4931268;28;113754;-79
2022/09/06 02:56:39;;;;;;;7.72;5.50;;;;;;;22.15;53.81;101358.41;4942697;28;123741;-79
2022/09/06 02:59:06;;;;;;;7.38;5.15;;;;;;;22.15;53.96;101353.03;4934534;28;123157;-80
2022/09/06 03:01:33;;;;;;;5.70;4.68;;;;;;;22.14;54.14;101356.69;4949499;28;114961;-79
2022/09/06 03:04:01;;;;;;;6.07;4.82;;;;;;;22.13;54.29;101371.19;4948169;28;113663;-79
2022/09/06 03:06:28;;;;;;;8.90;5.28;;;;;;;22.14;54.36;101382.81;4949736;28;123717;-79
2022/09/06 03:08:55;;;;;;;9.35;5.10;;;;;;;22.17;54.53;101393.38;4943933;28;124250;-79
2022/09/06 03:11:22;;;;;;;7.80;5.45;;;;;;;22.21;54.52;101410.13;4942560;28;112632;-79
2022/09/06 03:13:49;;;;;;;5.70;4.88;;;;;;;22.24;54.60;101416.13;4950764;28;113374;-79
2022/09/06 03:16:18;;;;;;;8.75;5.50;;;;;;;22.27;54.65;101424.00;4945230;28;123311;-79
2022/09/06 03:18:45;;;;;;;7.25;5.65;;;;;;;22.31;54.71;101417.34;4924809;28;122682;-79
2022/09/06 03:21:13;;;;;;;6.25;4.88;;;;;;;22.34;54.78;101417.09;4941741;28;114210;-79
2022/09/06 03:23:40;;;;;;;6.68;5.15;;;;;;;22.37;54.70;101415.09;4947819;28;113520;-79
2022/09/06 03:26:07;;;;;;;7.25;5.18;;;;;;;22.40;54.50;101420.25;4949761;28;123873;-79
2022/09/06 03:28:34;;;;;;;7.97;5.35;;;;;;;22.44;54.46;101416.31;4960565;28;124082;-79
2022/09/06 03:31:01;;;;;;;6.85;5.05;;;;;;;22.45;54.21;101418.00;4950179;28;113385;-79
2022/09/06 03:33:29;;;;;;;7.38;5.32;;;;;;;22.46;54.39;101420.56;4947832;28;114079;-79
2022/09/06 03:35:59;;;;;;;7.03;5.30;;;;;;;22.45;54.33;101423.38;4950335;28;123828;-79
2022/09/06 03:38:27;;;;;;;6.60;4.80;;;;;;;22.44;54.39;101410.91;4958497;28;123127;-79
2022/09/06 03:40:55;;;;;;;7.80;5.00;;;;;;;22.44;54.58;101405.50;4963392;28;111302;-80
2022/09/06 03:43:24;;;;;;;7.18;5.57;;;;;;;22.44;54.48;101416.31;4965023;28;114000;-80
2022/09/06 03:45:54;;;;;;;7.00;5.30;;;;;;;22.43;54.40;101403.78;4978870;28;122688;-80
2022/09/06 03:48:23;;;;;;;8.98;5.72;;;;;;;22.42;54.59;101412.88;4963521;28;123376;-80
2022/09/06 03:50:53;;;;;;;7.50;5.22;;;;;;;22.41;54.46;101411.16;4959810;28;115170;-78
2022/09/06 03:53:22;;;;;;;6.63;5.10;;;;;;;22.41;54.44;101400.34;4966350;28;114549;-80
2022/09/06 03:55:52;;;;;;;8.40;5.53;;;;;;;22.40;54.52;101398.66;4962762;28;123141;-80
2022/09/06 03:58:20;;;;;;;7.25;5.95;;;;;;;22.37;54.76;101409.72;4961480;28;124640;-81
2022/09/06 04:00:48;;;;;;;6.43;5.40;;;;;;;22.35;54.68;101408.00;4977560;28;115220;-80
2022/09/06 04:03:18;;;;;;;8.68;5.60;;;;;;;22.35;54.82;101408.00;4965340;28;114467;-79
2022/09/06 04:05:45;;;;;;;6.60;5.65;;;;;;;22.33;54.86;101409.97;4989010;28;122558;-78
2022/09/06 04:08:12;;;;;;;7.60;5.60;;;;;;;22.30;54.74;101399.47;4964716;28;124195;-78
2022/09/06 04:10:39;;;;;;;7.30;5.55;;;;;;;22.28;54.91;101401.44;4966401;28;115101;-79
2022/09/06 04:13:07;;;;;;;8.13;5.38;;;;;;;22.26;54.87;101403.38;4963964;28;114678;-80
2022/09/06 04:15:34;;;;;;;7.80;5.55;;;;;;;22.24;55.01;101413.41;4954639;28;124305;-80
2022/09/06 04:18:01;;;;;;;7.15;5.35;;;;;;;22.24;54.88;101409.88;4962155;28;123332;-80
2022/09/06 04:20:34;;;;;;;6.60;5.43;;;;;;;22.23;54.86;101403.63;4951719;28;114864;-79
2022/09/06 04:23:01;;;;;;;7.70;5.70;;;;;;;22.23;55.02;101408.19;4970536;28;113116;-80
2022/09/06 04:25:28;;;;;;;7.80;5.22;;;;;;;22.22;54.93;101412.69;4956269;28;124076;-80
2022/09/06 04:27:55;;;;;;;7.45;5.47;;;;;;;22.19;54.92;101407.59;4959597;28;124450;-80
2022/09/06 04:30:22;;;;;;;6.18;4.90;;;;;;;22.17;54.80;101412.25;4956378;28;113706;-79
2022/09/06 04:32:49;;;;;;;6.25;5.38;;;;;;;22.14;54.74;101407.09;4952819;28;113741;-79
2022/09/06 04:35:16;;;;;;;7.60;4.80;;;;;;;22.11;54.82;101404.66;4966868;28;123576;-78
2022/09/06 04:37:43;;;;;;;8.15;5.85;;;;;;;22.08;54.72;101410.34;4960680;28;122823;-81
2022/09/06 04:40:11;;;;;;;7.13;5.45;;;;;;;22.05;54.92;101410.59;4948757;28;114121;-80
2022/09/06 04:42:38;;;;;;;7.35;5.18;;;;;;;22.03;54.99;101415.25;4943127;28;114769;-79
2022/09/06 04:45:05;;;;;;;7.60;5.50;;;;;;;22.00;54.94;101426.28;4942135;28;124235;-79
2022/09/06 04:47:32;;;;;;;8.70;5.53;;;;;;;21.96;54.70;101423.88;4921420;28;123888;-80
2022/09/06 04:49:59;;;;;;;6.40;5.28;;;;;;;21.91;54.89;101420.69;4944200;28;113383;-80
2022/09/06 04:52:27;;;;;;;7.85;5.10;;;;;;;21.86;54.81;101428.31;4938888;28;114053;-80
2022/09/06 04:54:56;;;;;;;6.95;5.28;;;;;;;21.82;54.79;101437.66;4941264;28;123551;-80
2022/09/06 04:57:23;;;;;;;8.15;5.60;;;;;;;21.79;54.96;101437.91;4944081;28;124149;-79
2022/09/06 04:59:50;;;;;;;7.25;5.53;;;;;;;21.75;54.88;101436.44;4939717;28;113703;-80
2022/09/06 05:02:17;;;;;;;7.20;5.38;;;;;;;21.70;54.94;101433.25;4938006;28;112976;-79
2022/09/06 05:04:44;;;;;;;7.40;5.80;;;;;;;21.67;55.01;101438.94;4938283;28;123256;-80
2022/09/06 05:07:11;;;;;;;8.07;5.38;;;;;;;21.63;54.95;101440.16;4955513;28;123520;-78
2022/09/06 05:09:38;;;;;;;7.25;4.90;;;;;;;21.59;55.18;101436.88;4957461;28;113473;-80
2022/09/06 05:12:06;;;;;;;8.43;5.75;;;;;;;21.54;55.28;101439.94;4950918;28;112456;-81
2022/09/06 05:14:33;;;;;;;7.18;5.72;;;;;;;21.50;55.15;101443.84;4929653;28;122229;-77
2022/09/06 05:17:00;;;;;;;7.25;5.78;;;;;;;21.48;55.44;101448.53;4958342;28;123854;-79
2022/09/06 05:19:27;;;;;;;6.72;5.15;;;;;;;21.45;55.25;101451.44;4967152;28;114645;-79
2022/09/06 05:21:54;;;;;;;7.65;5.88;;;;;;;21.43;55.54;101458.78;4949990;28;112686;-79
2022/09/06 05:24:21;;;;;;;8.13;6.00;;;;;;;21.39;55.58;101451.94;4954762;28;123935;-79
2022/09/06 05:26:48;;;;;;;7.28;5.72;;;;;;;21.37;55.69;101459.28;4942267;28;123881;-80
2022/09/06 05:29:15;;;;;;;8.15;6.70;;;;;;;21.34;55.55;101473.00;4954161;28;115323;-79
2022/09/06 05:31:42;;;;;;;10.75;6.68;;;;;;;21.30;55.76;101468.84;4954245;28;114780;-80
2022/09/06 05:34:12;;;;;;;8.95;7.07;;;;;;;21.29;55.75;101467.13;4951222;28;122796;-79
2022/09/06 05:36:40;;;;;;;9.57;6.70;;;;;;;21.25;55.96;101465.66;4942780;28;122837;-81
2022/09/06 05:39:07;;;;;;;10.98;7.15;;;;;;;21.22;56.04;101466.75;4941240;28;115289;-80
2022/09/06 05:41:34;;;;;;;12.10;7.47;;;;;;;21.19;55.93;101457.09;4921622;28;113167;-80
2022/09/06 05:44:02;;;;;;;9.50;7.00;;;;;;;21.19;56.22;101467.00;4938086;28;124082;-79
2022/09/06 05:46:29;;;;;;;9.40;7.13;;;;;;;21.17;56.24;101464.44;4934811;28;121594;-80
2022/09/06 05:49:06;;;;;;;11.00;7.65;;;;;;;21.17;56.21;101469.84;4944142;28;114037;-80
2022/09/06 05:51:33;;;;;;;13.95;7.95;;;;;;;21.18;56.33;101474.22;4943699;28;114100;-80
2022/09/06 05:54:00;;;;;;;9.55;7.60;;;;;;;21.19;56.43;101472.38;4955514;28;123100;-79
2022/09/06 05:56:28;;;;;;;12.57;8.05;;;;;;;21.19;56.48;101473.25;4938950;28;123279;-79
2022/09/06 05:58:55;;;;;;;11.52;7.95;;;;;;;21.22;56.18;101471.31;4929249;28;112430;-80
2022/09/06 06:01:27;;;;;;;15.07;8.85;;;;;;;21.23;56.59;101473.00;4924620;28;113630;-80
2022/09/06 06:03:57;;;;;;;13.15;9.30;;;;;;;21.27;56.55;101477.19;4933044;28;123398;-79
2022/09/06 06:06:26;;;;;;;15.18;8.95;;;;;;;21.30;56.75;101479.63;4933529;28;123266;-79
2022/09/06 06:08:55;;;;;;;13.50;9.07;;;;;;;21.32;56.80;101472.25;4928739;28;113636;-79
2022/09/06 06:11:23;;;;;;;15.27;9.00;;;;;;;21.35;56.70;101477.41;4948333;28;113156;-80
2022/09/06 06:13:50;;;;;;;15.52;9.77;;;;;;;21.40;56.68;101491.38;4927412;28;123549;-80
2022/09/06 06:16:19;;;;;;;15.73;9.60;;;;;;;21.44;56.82;101482.09;4958167;28;122228;-80
2022/09/06 06:18:47;;;;;;;13.20;9.70;;;;;;;21.50;56.95;101481.59;4949545;28;114179;-79
2022/09/06 06:21:23;;;;;;;14.60;9.90;;;;;;;21.55;56.79;101479.38;4946538;28;114828;-80
2022/09/06 06:23:56;;;;;;;12.30;9.68;;;;;;;21.65;56.88;101484.88;4950075;28;124154;-80
2022/09/06 06:26:25;;;;;;;13.32;9.65;;;;;;;21.73;56.97;101481.56;4931784;28;122745;-80
2022/09/06 06:28:52;;;;;;;20.17;9.65;;;;;;;21.82;56.93;101483.50;4943236;28;114894;-80
2022/09/06 06:31:21;;;;;;;13.57;10.25;;;;;;;21.91;56.90;101489.97;4939948;28;113538;-79
2022/09/06 06:33:49;;;;;;;13.60;10.20;;;;;;;22.02;57.03;101486.38;4943195;28;123402;-80
2022/09/06 06:36:16;;;;;;;19.30;11.20;;;;;;;22.11;56.74;101486.47;4940867;28;123848;-79
2022/09/06 06:38:45;;;;;;;16.45;10.25;;;;;;;22.22;56.53;101485.56;4945579;28;114641;-82
2022/09/06 06:41:14;;;;;;;13.60;10.43;;;;;;;22.33;56.77;101490.94;4954583;28;113789;-82
2022/09/06 06:43:42;;;;;;;12.05;9.60;;;;;;;22.45;56.57;101482.78;4937698;28;124070;-81
2022/09/06 06:46:17;;;;;;;14.05;9.32;;;;;;;22.59;56.62;101478.91;4942997;28;123925;-80
2022/09/06 06:48:45;;;;;;;14.07;8.68;;;;;;;22.70;56.04;101477.00;4931502;28;113743;-80
2022/09/06 06:51:15;;;;;;;16.13;9.10;;;;;;;22.81;56.04;101467.97;4930394;28;113721;-81
2022/09/06 06:53:46;;;;;;;14.07;9.23;;;;;;;22.96;55.68;101465.75;4934677;28;123947;-81
2022/09/06 06:56:21;;;;;;;11.98;8.38;;;;;;;23.11;55.80;101469.84;4936124;28;123119;-80
2022/09/06 06:58:51;;;;;;;12.60;8.23;;;;;;;23.29;55.58;101463.78;4929748;28;114119;-81
2022/09/06 07:01:20;;;;;;;10.30;7.80;;;;;;;23.45;55.39;101461.44;4934078;28;112535;-80
2022/09/06 07:03:48;;;;;;;8.73;7.18;;;;;;;23.64;55.47;101459.75;4930706;28;123799;-81
2022/09/06 07:06:16;;;;;;;11.65;7.47;;;;;;;23.81;55.28;101445.59;4932172;28;123302;-80
2022/09/06 07:08:44;;;;;;;7.90;6.55;;;;;;;24.00;54.56;101455.56;4931607;28;114877;-80
2022/09/06 07:11:14;;;;;;;8.40;6.25;;;;;;;24.16;54.10;101449.56;4932918;28;115260;-80
2022/09/06 07:13:41;;;;;;;8.40;7.15;;;;;;;24.31;53.85;101446.44;4930794;28;123084;-80
2022/09/06 07:16:12;;;;;;;9.00;6.45;;;;;;;24.43;53.70;101445.25;4932076;28;122016;-80
2022/09/06 07:18:41;;;;;;;9.38;6.28;;;;;;;24.58;53.06;101443.00;4933427;28;113096;-81
2022/09/06 07:21:10;;;;;;;8.77;6.65;;;;;;;24.68;53.29;101443.84;4939316;28;112992;-80
2022/09/06 07:23:57;;;;;;;9.07;5.95;;;;;;;24.83;52.47;101441.50;4948194;28;123866;-81
2022/09/06 07:26:34;;;;;;;8.60;5.85;;;;;;;24.92;52.14;101439.75;4923627;28;122498;-82
2022/09/06 07:29:03;;;;;;;9.93;5.80;;;;;;;25.03;52.38;101440.44;4940079;28;115098;-82
2022/09/06 07:31:31;;;;;;;9.63;5.68;;;;;;;25.15;51.49;101434.81;4950998;28;112430;-82
2022/09/06 07:34:19;;;;;;;8.95;5.80;;;;;;;25.28;51.58;101440.78;4951528;28;125510;-82
2022/09/06 07:36:47;;;;;;;9.57;5.72;;;;;;;25.39;51.20;101447.84;4951103;28;123684;-82
2022/09/06 07:39:14;;;;;;;11.13;5.50;;;;;;;25.50;50.87;101438.66;4928886;28;112657;-82
2022/09/06 07:41:42;;;;;;;9.55;5.75;;;;;;;25.65;51.24;101450.69;4943892;28;113512;-81
2022/09/06 07:44:09;;;;;;;9.88;5.45;;;;;;;25.81;51.03;101444.59;4938494;28;123758;-81
2022/09/06 07:46:36;;;;;;;6.93;5.10;;;;;;;25.99;50.69;101450.03;4960825;28;123942;-81
2022/09/06 07:49:04;;;;;;;7.80;4.97;;;;;;;26.13;50.25;101449.50;4935992;28;113770;-81
2022/09/06 07:51:32;;;;;;;6.10;4.93;;;;;;;26.26;49.56;101450.94;4944849;28;112911;-81
2022/09/06 07:53:59;;;;;;;7.63;5.00;;;;;;;26.35;49.32;101447.28;4954307;28;123790;-80
2022/09/06 07:56:46;;;;;;;7.90;4.70;;;;;;;26.45;48.82;101439.03;4930604;28;123605;-80
2022/09/06 07:59:13;;;;;;;7.40;5.20;;;;;;;26.52;48.41;101440.09;4935554;28;115724;-80
2022/09/06 08:01:41;;;;;;;9.02;5.22;;;;;;;26.60;48.43;101443.78;4949094;28;113935;-80
2022/09/06 08:04:13;;;;;;;6.75;4.75;;;;;;;26.72;47.96;101435.34;4942827;28;123851;-80
2022/09/06 08:06:47;;;;;;;7.68;4.90;;;;;;;26.82;48.02;101436.09;4946963;28;123543;-80
2022/09/06 08:09:34;;;;;;;6.90;4.85;;;;;;;26.94;47.78;101433.97;4944421;28;114260;-80
2022/09/06 08:12:07;;;;;;;7.65;5.05;;;;;;;27.05;47.81;101430.06;4950602;28;113998;-80
2022/09/06 08:14:34;;;;;;;6.45;4.55;;;;;;;27.18;47.24;101435.91;4951518;28;122920;-80
2022/09/06 08:17:03;;;;;;;7.18;4.68;;;;;;;27.30;47.12;101429.22;4951684;28;123573;-80
2022/09/06 08:19:31;;;;;;;5.90;4.15;;;;;;;27.42;46.77;101432.47;4952742;28;113815;-80
2022/09/06 08:21:58;;;;;;;5.82;4.18;;;;;;;27.55;46.51;101437.44;4951805;28;114358;-81
2022/09/06 08:24:25;;;;;;;5.07;4.20;;;;;;;27.66;46.18;101434.41;4948586;28;123348;-81
2022/09/06 08:26:52;;;;;;;5.88;4.22;;;;;;;27.74;45.66;101426.25;4951963;28;122139;-82
2022/09/06 08:29:19;;;;;;;6.65;4.25;;;;;;;27.83;45.60;101423.56;4930602;28;113743;-82
2022/09/06 08:31:46;;;;;;;4.30;3.80;;;;;;;27.91;45.55;101420.84;4945409;28;113522;-82
2022/09/06 08:34:14;;;;;;;5.10;3.90;;;;;;;28.01;44.91;101416.13;4948984;28;124277;-83
2022/09/06 08:36:43;;;;;;;5.25;3.78;;;;;;;28.10;44.72;101415.06;4951682;28;124606;-82
2022/09/06 08:39:10;;;;;;;4.75;3.50;;;;;;;28.17;44.51;101419.84;4951839;28;114261;-82
2022/09/06 08:41:48;;;;;;;6.07;3.20;;;;;;;28.26;44.35;101418.81;4947518;28;113449;-83
2022/09/06 08:44:23;;;;;;;5.13;3.17;;;;;;;28.33;43.72;101417.09;4930960;28;123553;-82
2022/09/06 08:47:12;;;;;;;5.00;2.63;;;;;;;28.42;43.65;101407.88;4944393;28;123973;-82
2022/09/06 08:49:46;;;;;;;5.68;2.55;;;;;;;28.51;43.81;101415.03;4941181;28;116185;-82
2022/09/06 08:52:25;;;;;;;4.78;2.63;;;;;;;28.64;43.68;101410.97;4949252;28;114733;-83
2022/09/06 08:55:01;;;;;;;3.20;2.53;;;;;;;28.77;43.11;101410.41;4934210;28;123683;-82
2022/09/06 08:57:33;;;;;;;3.05;2.50;;;;;;;28.91;43.47;101413.28;4947791;28;124556;-83
2022/09/06 09:00:12;;;;;;;4.40;2.55;;;;;;;29.05;43.35;101402.66;4948249;28;114368;-83
2022/09/06 09:02:45;;;;;;;3.72;2.20;;;;;;;29.18;42.43;101397.50;4942792;28;113694;-82
2022/09/06 09:05:22;;;;;;;3.70;2.25;;;;;;;29.26;41.74;101397.44;4946139;28;123500;-84
2022/09/06 09:08:06;;;;;;;4.70;2.20;;;;;;;29.31;41.67;101391.47;4953781;28;124192;-83
2022/09/06 09:10:44;;;;;;;4.15;2.10;;;;;;;29.38;41.61;101397.03;4957928;28;112831;-82
2022/09/06 09:13:29;;;;;;;3.67;2.17;;;;;;;29.49;41.93;101404.81;4942671;28;113645;-82
2022/09/06 09:15:57;;;;;;;2.80;1.90;;;;;;;29.58;41.44;101409.19;4957019;28;123492;-82
2022/09/06 09:18:29;;;;;;;5.15;2.00;;;;;;;29.63;40.77;101406.78;4964763;28;123817;-83
2022/09/06 09:20:57;;;;;;;4.43;1.90;;;;;;;29.69;40.75;101392.41;4934540;28;114307;-81
2022/09/06 09:23:24;;;;;;;3.00;1.70;;;;;;;29.73;40.74;101383.84;4941269;28;113045;-81
2022/09/06 09:25:54;;;;;;;2.75;1.90;;;;;;;29.78;40.55;101389.63;4939458;28;124815;-81
2022/09/06 09:28:23;;;;;;;1.80;1.58;;;;;;;29.87;40.58;101385.81;4950832;28;123692;-82
2022/09/06 09:30:55;;;;;;;3.88;1.60;;;;;;;29.94;40.35;101397.69;4940142;28;112591;-82
2022/09/06 09:33:34;;;;;;;3.30;1.50;;;;;;;30.01;39.67;101408.75;4970316;28;113738;-81
2022/09/06 09:36:06;;;;;;;3.60;1.50;;;;;;;30.03;39.97;101402.06;4953864;28;124940;-82
2022/09/06 09:38:41;;;;;;;2.90;1.55;;;;;;;30.08;39.72;101394.19;4943340;28;124011;-82
2022/09/06 09:41:22;;;;;;;2.30;1.60;;;;;;;30.16;39.49;101395.09;4943497;28;115263;-80
2022/09/06 09:44:01;;;;;;;2.63;1.80;;;;;;;30.21;39.34;101387.22;4938640;28;113919;-79
2022/09/06 09:46:35;;;;;;;2.72;1.60;;;;;;;30.24;39.54;101387.69;4950062;28;123365;-79
2022/09/06 09:49:21;;;;;;;2.60;1.55;;;;;;;30.31;39.81;101387.81;4940511;28;123696;-80
2022/09/06 09:52:12;;;;;;;2.92;1.55;;;;;;;30.41;39.58;101382.94;4952517;28;114049;-80
2022/09/06 09:54:43;;;;;;;4.28;1.80;;;;;;;30.51;39.11;101390.03;4968071;28;114331;-80
2022/09/06 09:57:16;;;;;;;4.70;1.67;;;;;;;30.55;38.86;101388.59;4957045;28;124480;-79
2022/09/06 09:59:46;;;;;;;3.67;1.60;;;;;;;30.61;38.90;101393.31;4937173;28;123609;-79
2022/09/06 10:02:34;;;;;;;2.20;1.58;;;;;;;30.64;38.89;101387.47;4961733;28;114035;-80
2022/09/06 10:05:06;;;;;;;2.47;1.67;;;;;;;30.71;38.52;101388.44;4919818;28;112800;-80
2022/09/06 10:07:34;;;;;;;3.15;1.67;;;;;;;30.79;38.66;101391.06;4949344;28;123223;-80
2022/09/06 10:10:09;;;;;;;2.70;1.50;;;;;;;30.84;38.25;101388.63;4940168;28;123886;-80
2022/09/06 10:12:39;;;;;;;2.88;1.77;;;;;;;30.91;38.55;101376.94;4937011;28;112821;-78
2022/09/06 10:15:08;;;;;;;3.08;1.88;;;;;;;30.97;38.25;101381.66;4949134;28;113050;-78
2022/09/06 10:17:50;;;;;;;4.75;2.20;;;;;;;31.00;38.16;101386.75;4949127;28;125080;-78
2022/09/06 10:20:17;;;;;;;3.95;2.20;;;;;;;31.03;38.16;101386.38;4948359;28;124275;-79
2022/09/06 10:23:15;;;;;;;5.32;2.80;;;;;;;31.07;38.05;101382.19;4941920;28;113800;-78
2022/09/06 10:25:52;;;;;;;5.47;2.50;;;;;;;31.12;38.01;101374.28;4931764;28;113763;-78
2022/09/06 10:28:22;;;;;;;4.20;2.70;;;;;;;31.17;38.26;101377.25;4916722;28;122939;-78
2022/09/06 10:31:01;;;;;;;4.70;3.45;;;;;;;31.23;37.84;101368.31;4934886;28;121682;-77
2022/09/06 10:33:45;;;;;;;4.22;2.80;;;;;;;31.28;37.83;101372.34;4945770;28;115855;-77
2022/09/06 10:36:17;;;;;;;4.53;2.60;;;;;;;31.32;37.37;101376.38;4967861;28;114308;-80
2022/09/06 10:39:16;;;;;;;3.65;2.70;;;;;;;31.34;37.81;101385.25;4944735;28;123736;-78
2022/09/06 10:42:21;;;;;;;4.45;2.65;;;;;;;31.37;37.46;101382.13;4950002;28;124172;-79
2022/09/06 10:44:54;;;;;;;3.07;1.90;;;;;;;31.38;37.53;101383.81;4940293;28;115091;-78
2022/09/06 10:47:27;;;;;;;2.72;1.83;;;;;;;31.44;37.64;101383.06;4938773;28;112922;-78
2022/09/06 10:49:58;;;;;;;3.20;2.13;;;;;;;31.52;37.08;101385.69;4940355;28;124159;-80
2022/09/06 10:52:41;;;;;;;3.22;2.00;;;;;;;31.58;37.40;101389.56;4943711;28;124336;-80
2022/09/06 10:55:12;;;;;;;4.80;2.17;;;;;;;31.62;37.15;101385.38;4950517;28;114137;-79
2022/09/06 10:57:46;;;;;;;2.70;2.10;;;;;;;31.67;37.18;101398.50;4949658;28;113458;-81
2022/09/06 11:00:42;;;;;;;5.88;1.88;;;;;;;31.72;36.91;101385.03;4936794;28;123816;-80
2022/09/06 11:03:30;;;;;;;2.25;1.67;;;;;;;31.77;37.30;101388.06;4938469;28;124331;-81
2022/09/06 11:06:20;;;;;;;3.60;1.90;;;;;;;31.82;37.22;101380.09;4950343;28;113184;-79
2022/09/06 11:09:01;;;;;;;2.78;1.88;;;;;;;31.86;36.75;101370.44;4960296;28;113773;-79
2022/09/06 11:11:41;;;;;;;3.72;2.10;;;;;;;31.86;36.55;101375.91;4936173;28;124784;-79
2022/09/06 11:14:12;;;;;;;3.42;1.90;;;;;;;31.87;36.47;101369.38;4934175;28;123233;-80
2022/09/06 11:16:47;;;;;;;4.47;1.90;;;;;;;31.91;36.34;101372.56;4934175;28;114480;-79
2022/09/06 11:19:21;;;;;;;3.95;1.67;;;;;;;31.96;36.89;101386.53;4936953;28;113948;-80
2022/09/06 11:21:59;;;;;;;4.55;2.00;;;;;;;32.03;36.69;101387.47;4939044;28;123288;-79
2022/09/06 11:24:54;;;;;;;3.83;1.80;;;;;;;32.11;36.45;101389.22;4940186;28;124054;-79
2022/09/06 11:27:36;;;;;;;3.80;1.90;;;;;;;32.17;36.37;101399.38;4934431;28;113609;-79
2022/09/06 11:30:06;;;;;;;4.80;2.00;;;;;;;32.23;36.62;101398.63;4935907;28;116522;-79
2022/09/06 11:32:42;;;;;;;2.63;1.90;;;;;;;32.24;36.33;101392.06;4934895;28;124110;-79
2022/09/06 11:35:24;;;;;;;3.10;1.77;;;;;;;32.26;36.11;101391.88;4935020;28;124326;-79
2022/09/06 11:38:00;;;;;;;5.35;1.80;;;;;;;32.27;36.20;101394.41;4933579;28;113229;-79
2022/09/06 11:40:34;;;;;;;4.03;1.80;;;;;;;32.31;36.11;101387.50;4929971;28;113074;-79
2022/09/06 11:43:02;;;;;;;5.55;1.90;;;;;;;32.38;36.00;101385.66;4952390;28;123815;-79
2022/09/06 11:45:50;;;;;;;2.60;1.90;;;;;;;32.46;35.70;101397.50;4978912;28;122193;-78
2022/09/06 11:48:32;;;;;;;2.50;1.95;;;;;;;32.49;35.52;101408.06;4960179;28;113609;-77
2022/09/06 11:51:05;;;;;;;2.47;1.88;;;;;;;32.51;35.59;101405.97;4938636;28;113124;-78
2022/09/06 11:53:47;;;;;;;3.85;1.85;;;;;;;32.53;35.63;101403.88;4951987;28;123526;-78
2022/09/06 11:56:53;;;;;;;4.35;1.80;;;;;;;32.51;35.68;101411.44;4950081;28;123928;-78
2022/09/06 11:59:40;;;;;;;;;;;;;;;32.43;35.93;101409.72;4947545;28;115227;-78
2022/09/06 12:02:31;;;;;;;3.55;2.10;;;;;;;32.37;35.69;101405.88;4964809;28;113773;-79
2022/09/06 12:04:59;;;;;;;4.20;2.40;;;;;;;32.41;35.69;101406.31;4954081;28;124402;-78
2022/09/06 12:07:29;;;;;;;3.72;2.50;;;;;;;32.42;35.46;101401.69;4956848;28;122443;-78
2022/09/06 12:10:00;;;;;;;2.90;2.28;;;;;;;32.45;35.68;101395.81;4952041;28;114018;-81
2022/09/06 12:12:47;;;;;;;4.55;2.50;;;;;;;32.48;35.76;101389.94;4958142;28;114068;-81
2022/09/06 12:15:43;;;;;;;5.68;2.30;;;;;;;32.51;35.70;101389.50;4970797;28;124054;-81